Gravette, Arkansas
Current Conditions -  °F | °C
As of 5:53 PM on Monday 24 Nov 2014 (Local Time) from KXNA Reporting Station
Clear Clear  
Wind Chill: 41°   Ceiling: Unl
Heat Index: 44°   Visibility: 10mi
Dew Point: 25°   Wind: 6mph
Humidity: 47%   Direction: 280°W
Pressure: 29.97"   Gusts: NA
Location:  36.42°N, 94.45°W
Report Text: KXNA 242353Z 28005KT 10SM CLR 07/M04 A2997 RMK AO2 SLP152 60000 T00671039 10111 20067 53030
Loading
Personal Weather Stations






























Interactive Weather Map New forecast layout! Learn more

10-Day Weather Forecast

Advertisements
Track Severe Weather on mobile